Main page
METAR-TAF:

METAR-TAF

Airports :

King Abdulaziz Air Base

Dhahran, Saudi Arabia

latitude: 26-16N, longitude: 050-09E, elevation: 26 m

Current weather observation

The report was made 58 minutes ago, at 04:00 UTC
Wind 9 kt from the West/Northwest
Temperature 24°C
Humidity 36%
Pressure 1013 hPa
Visibility 10 km or more
no clouds below 1500 m and no cumulonimbus

METAR: OEDR 230400Z 30009KT CAVOK 24/08 Q1013

Time: 07:58 (04:58 UTC)

Forecast

The report was made 8 hours and 15 minutes ago, at 20:43 UTC
Forecast valid from 23 at 00 UTC to 24 at 06 UTC
Wind 9 kt from the West/Northwest
Visibility 10 km or more
no clouds below 1500 m and no cumulonimbus
Becoming
from 23 at 04 UTC to 23 at 06 UTC
Wind 15 kt from the North
Becoming
from 23 at 17 UTC to 23 at 19 UTC
Wind 3 kt from variable directions
Probability 30% :
Temporary
from 24 at 00 UTC to 24 at 05 UTC
Visibility: 5000 m
haze

TAF: OEDR 222043Z 2300/2406 30009KT CAVOK BECMG 2304/2306 35015KT BECMG 2317/2319 VRB03KT PROB30 TEMPO 2400/2405 5000 HZ NSC

Weather observations and forecasts of more than 4000 airports (METAR and TAF reports).

The available stations are represented by yellow and red dots on the map.

Hover mouse over dot to see the name of the station.

Then click to see weather observations and forecasts.

To change the map : click on the green buttons with a black cross to zoom in, on the green button with a dash to zoom out, or on the green arrows for adjacent maps.


METAR-TAF: